createdAt,value
2019-01-20T00:00:50.081Z,-1.76
2019-01-20T00:01:50.048Z,-1.84
2019-01-20T00:02:50.017Z,-1.94
2019-01-20T00:03:49.987Z,-1.99
2019-01-20T00:04:49.963Z,-1.90
2019-01-20T00:05:49.928Z,-2.02
2019-01-20T00:06:49.894Z,-1.94
2019-01-20T00:07:49.868Z,-1.93
2019-01-20T00:08:49.834Z,-1.97
2019-01-20T00:09:49.806Z,-1.97
2019-01-20T00:10:49.791Z,-2.07
2019-01-20T00:11:49.743Z,-1.97
2019-01-20T00:12:49.712Z,-2.05
2019-01-20T00:13:49.680Z,-2.05
2019-01-20T00:14:49.650Z,-2.00
2019-01-20T00:15:49.635Z,-2.00
2019-01-20T00:16:49.592Z,-2.04
2019-01-20T00:17:49.561Z,-2.02
2019-01-20T00:18:49.526Z,-2.04
2019-01-20T00:19:49.498Z,-2.11
2019-01-20T00:22:21.532Z,-2.11
2019-01-20T00:23:21.477Z,-2.13
2019-01-20T00:25:14.905Z,-2.07
2019-01-20T00:26:14.760Z,-2.10
2019-01-20T00:28:08.105Z,-2.08
2019-01-20T00:29:08.121Z,-2.15
2019-01-20T00:31:01.397Z,-2.20
2019-01-20T00:32:01.345Z,-2.18
2019-01-20T00:33:54.690Z,-2.18
2019-01-20T00:34:54.643Z,-2.28
2019-01-20T00:36:48.997Z,-2.18
2019-01-20T00:37:48.938Z,-2.32
2019-01-20T00:39:42.284Z,-2.20
2019-01-20T00:40:42.230Z,-2.22
2019-01-20T00:42:35.570Z,-2.18
2019-01-20T00:43:35.515Z,-2.29
2019-01-20T00:45:28.858Z,-2.29
2019-01-20T00:46:28.809Z,-2.25
2019-01-20T00:48:22.122Z,-2.39
2019-01-20T00:49:22.080Z,-2.37
2019-01-20T00:51:15.426Z,-2.40
2019-01-20T00:52:15.366Z,-2.32
2019-01-20T00:54:08.687Z,-2.29
2019-01-20T00:55:08.650Z,-2.36
2019-01-20T00:57:02.003Z,-2.45
2019-01-20T00:58:01.943Z,-2.45
2019-01-20T00:59:55.276Z,-2.40
2019-01-20T01:00:55.251Z,-2.42
2019-01-20T01:02:48.671Z,-2.54
2019-01-20T01:03:48.535Z,-2.50
2019-01-20T01:05:41.873Z,-2.52
2019-01-20T01:06:41.838Z,-2.54
2019-01-20T01:08:36.141Z,-2.57
2019-01-20T01:09:36.103Z,-2.66
2019-01-20T01:11:31.656Z,-2.55
2019-01-20T01:12:29.384Z,-2.62
2019-01-20T01:14:22.705Z,-2.68
2019-01-20T01:15:22.668Z,-2.72
2019-01-20T01:17:16.062Z,-2.63
2019-01-20T01:18:15.950Z,-2.61
2019-01-20T01:20:10.280Z,-2.70
2019-01-20T01:21:10.237Z,-2.61
2019-01-20T01:23:04.614Z,-2.61
2019-01-20T01:24:04.526Z,-2.65
2019-01-20T01:26:02.431Z,-2.70
2019-01-20T01:27:02.392Z,-2.70
2019-01-20T01:28:55.740Z,-2.72
2019-01-20T01:29:55.712Z,-2.69
2019-01-20T01:31:49.108Z,-2.69
2019-01-20T01:32:48.965Z,-2.69
2019-01-20T01:34:43.438Z,-2.65
2019-01-20T01:35:43.249Z,-2.65
2019-01-20T01:37:36.605Z,-2.66
2019-01-20T01:38:36.635Z,-2.68
2019-01-20T01:40:29.875Z,-2.73
2019-01-20T01:41:29.872Z,-2.83
2019-01-20T01:43:23.196Z,-2.78
2019-01-20T01:44:23.142Z,-2.80
2019-01-20T01:46:16.460Z,-2.80
2019-01-20T01:47:16.429Z,-2.81
2019-01-20T01:49:09.764Z,-2.78
2019-01-20T01:50:09.710Z,-2.81
2019-01-20T01:52:07.949Z,-2.80
2019-01-20T01:53:07.890Z,-2.78
2019-01-20T01:55:01.230Z,-2.80
2019-01-20T01:56:01.177Z,-2.69
2019-01-20T01:57:54.515Z,-2.69
2019-01-20T01:58:54.458Z,-2.81
2019-01-20T02:00:48.777Z,-2.75
2019-01-20T02:01:48.741Z,-2.83
2019-01-20T02:03:42.080Z,-2.80
2019-01-20T02:04:42.017Z,-2.89
2019-01-20T02:06:35.343Z,-2.75
2019-01-20T02:07:35.299Z,-2.76
2019-01-20T02:09:28.651Z,-2.91
2019-01-20T02:10:28.591Z,-2.90
2019-01-20T02:12:22.939Z,-2.86
2019-01-20T02:13:22.964Z,-2.87
2019-01-20T02:15:16.222Z,-2.84
2019-01-20T02:16:16.154Z,-2.90
2019-01-20T02:18:10.491Z,-2.93
2019-01-20T02:19:10.436Z,-3.01
2019-01-20T02:21:03.769Z,-2.90
2019-01-20T02:22:03.736Z,-2.91
2019-01-20T02:23:58.098Z,-2.94
2019-01-20T02:24:58.035Z,-2.93
2019-01-20T02:25:58.009Z,-2.93
2019-01-20T02:26:57.976Z,-2.89
2019-01-20T02:27:58.808Z,-2.99
2019-01-20T02:28:57.909Z,-2.96
2019-01-20T02:29:57.876Z,-2.98
2019-01-20T02:30:57.845Z,-2.96
2019-01-20T02:31:57.814Z,-2.96
2019-01-20T02:32:57.830Z,-2.96
2019-01-20T02:33:57.755Z,-2.98
2019-01-20T02:34:57.726Z,-2.93
2019-01-20T02:35:57.686Z,-2.93
2019-01-20T02:36:57.656Z,-2.98
2019-01-20T02:37:57.625Z,-2.96
2019-01-20T02:38:57.622Z,-2.98
2019-01-20T02:39:57.562Z,-2.99
2019-01-20T02:40:57.531Z,-2.98
2019-01-20T02:41:57.502Z,-2.99
2019-01-20T02:42:57.473Z,-3.04
2019-01-20T02:43:57.440Z,-3.02
2019-01-20T02:44:57.407Z,-3.05
2019-01-20T02:45:57.381Z,-3.08
2019-01-20T02:46:57.342Z,-3.08
2019-01-20T02:47:57.344Z,-3.08
2019-01-20T02:48:57.277Z,-3.09
2019-01-20T02:49:57.249Z,-3.07
2019-01-20T02:50:57.224Z,-3.08
2019-01-20T02:51:57.184Z,-3.09
2019-01-20T02:52:57.154Z,-3.14
2019-01-20T02:53:57.119Z,-3.09
2019-01-20T02:54:57.091Z,-3.11
2019-01-20T02:55:57.057Z,-3.15
2019-01-20T02:56:57.026Z,-3.14
2019-01-20T02:57:56.994Z,-3.12
2019-01-20T02:58:56.963Z,-3.09
2019-01-20T02:59:56.934Z,-3.11
2019-01-20T03:00:56.901Z,-3.14
2019-01-20T03:01:56.874Z,-3.11
2019-01-20T03:02:56.838Z,-3.14
2019-01-20T03:03:56.805Z,-3.12
2019-01-20T03:04:56.774Z,-3.17
2019-01-20T03:05:56.743Z,-3.12
2019-01-20T03:06:56.713Z,-3.22
2019-01-20T03:07:56.683Z,-3.09
2019-01-20T03:08:56.647Z,-3.15
2019-01-20T03:09:56.615Z,-3.15
2019-01-20T03:10:56.585Z,-3.09
2019-01-20T03:12:03.515Z,-3.19
2019-01-20T03:12:56.522Z,-3.14
2019-01-20T03:13:56.490Z,-3.19
2019-01-20T03:14:56.457Z,-3.20
2019-01-20T03:15:56.427Z,-3.20
2019-01-20T03:16:56.407Z,-3.17
2019-01-20T03:17:56.370Z,-3.23
2019-01-20T03:18:56.332Z,-3.17
2019-01-20T03:19:56.300Z,-3.15
2019-01-20T03:20:56.270Z,-3.27
2019-01-20T03:21:56.238Z,-3.25
2019-01-20T03:22:56.206Z,-3.30
2019-01-20T03:23:56.184Z,-3.19
2019-01-20T03:24:56.141Z,-3.29
2019-01-20T03:25:56.111Z,-3.27
2019-01-20T03:26:56.079Z,-3.26
2019-01-20T03:27:56.052Z,-3.29
2019-01-20T03:28:56.015Z,-3.32
2019-01-20T03:29:55.986Z,-3.25
2019-01-20T03:30:55.955Z,-3.27
2019-01-20T03:31:55.923Z,-3.22
2019-01-20T03:32:55.889Z,-3.32
2019-01-20T03:33:55.857Z,-3.15
2019-01-20T03:34:55.827Z,-3.29
2019-01-20T03:35:55.794Z,-3.27
2019-01-20T03:36:55.764Z,-3.29
2019-01-20T03:37:55.731Z,-3.25
2019-01-20T03:38:55.698Z,-3.25
2019-01-20T03:39:55.668Z,-3.26
2019-01-20T03:40:55.635Z,-3.22
2019-01-20T03:41:55.604Z,-3.27
2019-01-20T03:42:55.573Z,-3.23
2019-01-20T03:43:55.546Z,-3.26
2019-01-20T03:44:55.511Z,-3.30
2019-01-20T03:45:55.477Z,-3.27
2019-01-20T03:46:55.445Z,-3.27
2019-01-20T03:47:55.415Z,-3.22
2019-01-20T03:48:55.391Z,-3.23
2019-01-20T03:49:55.350Z,-3.26
2019-01-20T03:50:55.320Z,-3.26
2019-01-20T03:51:55.288Z,-3.26
2019-01-20T03:52:55.255Z,-3.36
2019-01-20T03:53:55.224Z,-3.32
2019-01-20T03:54:55.192Z,-3.38
2019-01-20T03:55:55.161Z,-3.41
2019-01-20T03:56:55.129Z,-3.43
2019-01-20T03:57:55.097Z,-3.44
2019-01-20T03:58:55.065Z,-3.40
2019-01-20T03:59:55.037Z,-3.48
2019-01-20T04:00:55.003Z,-3.46
2019-01-20T04:01:55.114Z,-3.44
2019-01-20T04:02:54.940Z,-3.43
2019-01-20T04:03:54.906Z,-3.40
2019-01-20T04:04:54.898Z,-3.50
2019-01-20T04:05:54.842Z,-3.43
2019-01-20T04:06:54.812Z,-3.48
2019-01-20T04:07:54.782Z,-3.44
2019-01-20T04:08:54.746Z,-3.46
2019-01-20T04:09:54.726Z,-3.44
2019-01-20T04:10:54.687Z,-3.47
2019-01-20T04:11:54.654Z,-3.48
2019-01-20T04:12:54.627Z,-3.46
2019-01-20T04:13:54.590Z,-3.44
2019-01-20T04:14:54.557Z,-3.46
2019-01-20T04:15:54.527Z,-3.41
2019-01-20T04:16:54.505Z,-3.48
2019-01-20T04:17:54.463Z,-3.41
2019-01-20T04:18:54.430Z,-3.40
2019-01-20T04:19:54.402Z,-3.51
2019-01-20T04:20:54.366Z,-3.37
2019-01-20T04:21:54.346Z,-3.43
2019-01-20T04:22:54.302Z,-3.44
2019-01-20T04:23:54.272Z,-3.40
2019-01-20T04:24:54.240Z,-3.40
2019-01-20T04:25:54.210Z,-3.41
2019-01-20T04:26:54.177Z,-3.41
2019-01-20T04:27:54.147Z,-3.38
2019-01-20T04:28:54.111Z,-3.41
2019-01-20T04:29:54.081Z,-3.41
2019-01-20T04:30:54.049Z,-3.36
2019-01-20T04:31:54.050Z,-3.40
2019-01-20T04:32:53.998Z,-3.41
2019-01-20T04:33:53.957Z,-3.44
2019-01-20T04:34:53.941Z,-3.41
2019-01-20T04:35:53.890Z,-3.47
2019-01-20T04:36:53.856Z,-3.50
2019-01-20T04:37:53.828Z,-3.48
2019-01-20T04:38:53.795Z,-3.53
2019-01-20T04:39:53.763Z,-3.50
2019-01-20T04:40:53.734Z,-3.59
2019-01-20T04:41:53.704Z,-3.55
2019-01-20T04:42:53.669Z,-3.53
2019-01-20T04:43:53.636Z,-3.51
2019-01-20T04:44:53.602Z,-3.59
2019-01-20T04:45:53.574Z,-3.56
2019-01-20T04:46:53.541Z,-3.53
2019-01-20T04:47:53.509Z,-3.55
2019-01-20T04:48:53.481Z,-3.61
2019-01-20T04:49:53.444Z,-3.58
2019-01-20T04:50:53.420Z,-3.61
2019-01-20T04:51:53.380Z,-3.59
2019-01-20T04:52:53.349Z,-3.58
2019-01-20T04:53:53.319Z,-3.56
2019-01-20T04:54:53.290Z,-3.59
2019-01-20T04:55:53.253Z,-3.50
2019-01-20T04:56:53.223Z,-3.56
2019-01-20T04:57:53.192Z,-3.51
2019-01-20T04:58:53.166Z,-3.51
2019-01-20T04:59:53.125Z,-3.61
2019-01-20T05:00:53.094Z,-3.64
2019-01-20T05:01:53.062Z,-3.66
2019-01-20T05:02:53.035Z,-3.58
2019-01-20T05:03:52.998Z,-3.66
2019-01-20T05:04:52.969Z,-3.62
2019-01-20T05:05:52.935Z,-3.62
2019-01-20T05:06:52.906Z,-3.64
2019-01-20T05:07:52.873Z,-3.62
2019-01-20T05:08:52.839Z,-3.64
2019-01-20T05:09:52.810Z,-3.71
2019-01-20T05:10:52.787Z,-3.69
2019-01-20T05:11:52.748Z,-3.66
2019-01-20T05:12:52.712Z,-3.53
2019-01-20T05:13:52.699Z,-3.65
2019-01-20T05:14:52.650Z,-3.65
2019-01-20T05:15:52.618Z,-3.65
2019-01-20T05:16:52.584Z,-3.71
2019-01-20T05:17:52.564Z,-3.71
2019-01-20T05:18:52.523Z,-3.78
2019-01-20T05:19:52.487Z,-3.83
2019-01-20T05:20:52.456Z,-3.75
2019-01-20T05:21:52.426Z,-3.77
2019-01-20T05:22:52.405Z,-3.84
2019-01-20T05:23:52.373Z,-3.77
2019-01-20T05:24:52.330Z,-3.87
2019-01-20T05:25:52.298Z,-3.81
2019-01-20T05:26:52.266Z,-3.74
2019-01-20T05:27:52.237Z,-3.78
2019-01-20T05:28:52.202Z,-3.68
2019-01-20T05:29:52.172Z,-3.75
2019-01-20T05:30:52.148Z,-3.88
2019-01-20T05:31:52.105Z,-3.84
2019-01-20T05:32:52.080Z,-3.81
2019-01-20T05:33:52.043Z,-3.81
2019-01-20T05:34:52.012Z,-3.85
2019-01-20T05:35:51.978Z,-3.85
2019-01-20T05:36:51.945Z,-3.80
2019-01-20T05:37:51.919Z,-3.84
2019-01-20T05:38:51.889Z,-3.85
2019-01-20T05:39:51.849Z,-3.85
2019-01-20T05:40:51.818Z,-3.95
2019-01-20T05:41:51.786Z,-3.78
2019-01-20T05:42:51.755Z,-3.83
2019-01-20T05:43:51.722Z,-3.71
2019-01-20T05:44:51.709Z,-3.94
2019-01-20T05:45:51.659Z,-3.91
2019-01-20T05:46:51.631Z,-3.91
2019-01-20T05:47:51.594Z,-3.91
2019-01-20T05:48:51.572Z,-3.91
2019-01-20T05:49:51.532Z,-4.02
2019-01-20T05:50:51.498Z,-3.83
2019-01-20T05:51:51.468Z,-3.83
2019-01-20T05:54:27.927Z,-3.94
2019-01-20T05:55:27.871Z,-3.91
2019-01-20T05:57:21.204Z,-3.83
2019-01-20T05:58:21.163Z,-3.88
2019-01-20T06:00:14.473Z,-3.88
2019-01-20T06:01:14.428Z,-3.90
2019-01-20T06:03:08.772Z,-3.85
2019-01-20T06:04:08.707Z,-3.91
2019-01-20T06:06:03.028Z,-3.99
2019-01-20T06:07:02.986Z,-3.95
2019-01-20T06:08:58.922Z,-3.87
2019-01-20T06:09:57.264Z,-3.87
2019-01-20T06:11:50.581Z,-3.81
2019-01-20T06:12:54.140Z,-3.95
2019-01-20T06:14:43.884Z,-3.83
2019-01-20T06:15:44.910Z,-4.04
2019-01-20T06:17:37.174Z,-3.95
2019-01-20T06:18:37.104Z,-3.91
2019-01-20T06:20:30.425Z,-3.96
2019-01-20T06:21:30.383Z,-3.98
2019-01-20T06:23:23.732Z,-3.94
2019-01-20T06:24:23.671Z,-3.96
2019-01-20T06:26:17.997Z,-3.87
2019-01-20T06:27:17.965Z,-3.94
2019-01-20T06:29:11.302Z,-3.91
2019-01-20T06:30:11.234Z,-4.01
2019-01-20T06:32:05.552Z,-3.91
2019-01-20T06:33:05.512Z,-4.06
2019-01-20T06:34:59.853Z,-4.06
2019-01-20T06:35:59.793Z,-4.09
2019-01-20T06:37:53.147Z,-4.05
2019-01-20T06:38:53.080Z,-3.98
2019-01-20T06:40:46.428Z,-4.09
2019-01-20T06:41:46.365Z,-3.95
2019-01-20T06:43:39.709Z,-3.91
2019-01-20T06:44:39.644Z,-3.91
2019-01-20T06:46:33.970Z,-3.96
2019-01-20T06:47:33.922Z,-3.98
2019-01-20T06:49:27.261Z,-3.95
2019-01-20T06:50:27.203Z,-3.98
2019-01-20T06:52:21.518Z,-4.04
2019-01-20T06:53:21.480Z,-4.02
2019-01-20T06:55:14.824Z,-4.06
2019-01-20T06:56:14.758Z,-4.05
2019-01-20T06:58:08.079Z,-4.17
2019-01-20T06:59:08.042Z,-4.16
2019-01-20T07:01:01.382Z,-4.08
2019-01-20T07:02:01.321Z,-4.09
2019-01-20T07:03:55.685Z,-4.14
2019-01-20T07:04:55.600Z,-4.08
2019-01-20T07:06:49.045Z,-3.96
2019-01-20T07:07:48.897Z,-4.06
2019-01-20T07:09:46.733Z,-4.04
2019-01-20T07:10:46.542Z,-4.05
2019-01-20T07:12:40.860Z,-4.14
2019-01-20T07:13:40.830Z,-4.17
2019-01-20T07:15:34.199Z,-4.09
2019-01-20T07:16:34.110Z,-4.13
2019-01-20T07:18:27.461Z,-4.08
2019-01-20T07:19:27.444Z,-4.08
2019-01-20T07:20:27.366Z,-4.09
2019-01-20T07:21:27.331Z,-4.16
2019-01-20T07:22:27.299Z,-4.13
2019-01-20T07:23:27.268Z,-4.12
2019-01-20T07:24:27.236Z,-4.12
2019-01-20T07:25:27.201Z,-4.08
2019-01-20T07:26:27.170Z,-4.13
2019-01-20T07:27:29.955Z,-4.22
2019-01-20T07:28:27.106Z,-4.14
2019-01-20T07:29:27.073Z,-4.22
2019-01-20T07:30:27.056Z,-4.16
2019-01-20T07:31:27.009Z,-4.19
2019-01-20T07:32:27.502Z,-4.14
2019-01-20T07:33:26.945Z,-4.12
2019-01-20T07:34:27.590Z,-4.05
2019-01-20T07:35:26.882Z,-4.08
2019-01-20T07:36:26.847Z,-4.02
2019-01-20T07:37:26.815Z,-4.12
2019-01-20T07:38:26.783Z,-4.06
2019-01-20T07:39:26.751Z,-4.08
2019-01-20T07:40:26.719Z,-3.98
2019-01-20T07:41:26.685Z,-4.05
2019-01-20T07:42:26.654Z,-4.09
2019-01-20T07:43:26.631Z,-4.05
2019-01-20T07:44:26.589Z,-4.02
2019-01-20T07:45:26.557Z,-3.95
2019-01-20T07:46:26.530Z,-3.91
2019-01-20T07:47:26.609Z,-3.96
2019-01-20T07:48:26.461Z,-3.87
2019-01-20T07:49:26.430Z,-3.91
2019-01-20T07:50:26.405Z,-3.91
2019-01-20T07:51:26.363Z,-3.90
2019-01-20T07:52:26.332Z,-3.84
2019-01-20T07:53:27.004Z,-3.83
2019-01-20T07:54:26.268Z,-3.74
2019-01-20T07:55:26.235Z,-3.77
2019-01-20T07:56:31.447Z,-3.69
2019-01-20T07:57:26.173Z,-3.68
2019-01-20T07:58:26.157Z,-3.74
2019-01-20T07:59:26.106Z,-3.78
2019-01-20T08:00:26.078Z,-3.65
2019-01-20T08:01:26.043Z,-3.65
2019-01-20T08:02:26.009Z,-3.64
2019-01-20T08:03:25.982Z,-3.68
2019-01-20T08:04:25.946Z,-3.65
2019-01-20T08:05:25.913Z,-3.62
2019-01-20T08:06:25.880Z,-3.66
2019-01-20T08:07:25.849Z,-3.64
2019-01-20T08:08:25.816Z,-3.64
2019-01-20T08:09:25.789Z,-3.50
2019-01-20T08:10:25.751Z,-3.55
2019-01-20T08:11:25.720Z,-3.50
2019-01-20T08:12:25.690Z,-3.51
2019-01-20T08:13:25.659Z,-3.41
2019-01-20T08:14:25.705Z,-3.47
2019-01-20T08:15:25.595Z,-3.43
2019-01-20T08:16:25.562Z,-3.30
2019-01-20T08:17:25.528Z,-3.27
2019-01-20T08:18:25.505Z,-3.23
2019-01-20T08:19:25.464Z,-3.25
2019-01-20T08:20:25.433Z,-3.25
2019-01-20T08:21:25.399Z,-3.26
2019-01-20T08:22:25.369Z,-3.23
2019-01-20T08:23:25.336Z,-3.22
2019-01-20T08:24:25.324Z,-3.23
2019-01-20T08:25:25.272Z,-3.25
2019-01-20T08:26:25.241Z,-3.11
2019-01-20T08:27:25.209Z,-3.14
2019-01-20T08:28:25.178Z,-3.11
2019-01-20T08:29:25.145Z,-3.09
2019-01-20T08:30:25.159Z,-3.05
2019-01-20T08:31:25.084Z,-2.98
2019-01-20T08:32:25.049Z,-2.99
2019-01-20T08:33:25.018Z,-2.99
2019-01-20T08:34:24.985Z,-3.01
2019-01-20T08:35:24.975Z,-2.94
2019-01-20T08:36:26.349Z,-2.90
2019-01-20T08:37:28.817Z,-2.89
2019-01-20T08:38:24.861Z,-2.90
2019-01-20T08:39:24.831Z,-2.84
2019-01-20T08:40:24.796Z,-2.90
2019-01-20T08:41:24.768Z,-2.80
2019-01-20T08:42:24.732Z,-2.80
2019-01-20T08:43:31.569Z,-2.80
2019-01-20T08:44:24.668Z,-2.78
2019-01-20T08:45:24.642Z,-2.84
2019-01-20T08:46:24.606Z,-2.76
2019-01-20T08:47:24.584Z,-2.75
2019-01-20T08:48:24.549Z,-2.63
2019-01-20T08:49:24.511Z,-2.69
2019-01-20T08:50:24.479Z,-2.66
2019-01-20T08:51:24.446Z,-2.65
2019-01-20T08:52:24.416Z,-2.72
2019-01-20T08:53:24.385Z,-2.62
2019-01-20T08:54:24.354Z,-2.61
2019-01-20T08:55:24.321Z,-2.62
2019-01-20T08:56:24.293Z,-2.47
2019-01-20T08:57:24.270Z,-2.48
2019-01-20T08:58:24.958Z,-2.47
2019-01-20T08:59:25.470Z,-2.52
2019-01-20T09:00:24.164Z,-2.55
2019-01-20T09:01:24.133Z,-2.47
2019-01-20T09:02:24.102Z,-2.42
2019-01-20T09:03:24.070Z,-2.36
2019-01-20T09:04:24.039Z,-2.36
2019-01-20T09:05:24.519Z,-2.34
2019-01-20T09:06:51.608Z,-2.37
2019-01-20T09:07:23.970Z,-2.32
2019-01-20T09:08:23.920Z,-2.33
2019-01-20T09:09:23.881Z,-2.22
2019-01-20T09:10:23.852Z,-2.28
2019-01-20T09:11:23.820Z,-2.20
2019-01-20T09:12:23.789Z,-2.14
2019-01-20T09:13:23.759Z,-2.20
2019-01-20T09:14:23.728Z,-2.14
2019-01-20T09:15:23.701Z,-2.15
2019-01-20T09:16:23.665Z,-2.14
2019-01-20T09:17:23.638Z,-2.13
2019-01-20T09:18:23.607Z,-2.04
2019-01-20T09:19:23.571Z,-2.04
2019-01-20T09:20:23.539Z,-2.07
2019-01-20T09:21:23.508Z,-1.99
2019-01-20T09:22:23.484Z,-1.94
2019-01-20T09:23:23.456Z,-1.93
2019-01-20T09:24:23.416Z,-1.89
2019-01-20T09:25:23.384Z,-1.87
2019-01-20T09:26:23.356Z,-1.78
2019-01-20T09:27:23.332Z,-1.76
2019-01-20T09:28:23.292Z,-1.79
2019-01-20T09:29:23.259Z,-1.75
2019-01-20T09:30:23.228Z,-1.69
2019-01-20T09:31:23.198Z,-1.68
2019-01-20T09:32:23.165Z,-1.56
2019-01-20T09:33:24.647Z,-1.48
2019-01-20T09:34:23.109Z,-1.48
2019-01-20T09:35:23.078Z,-1.50
2019-01-20T09:36:23.042Z,-1.48
2019-01-20T09:37:23.011Z,-1.39
2019-01-20T09:38:22.980Z,-1.40
2019-01-20T09:39:22.973Z,-1.39
2019-01-20T09:40:22.922Z,-1.42
2019-01-20T09:41:22.887Z,-1.39
2019-01-20T09:42:22.864Z,-1.38
2019-01-20T09:43:22.826Z,-1.36
2019-01-20T09:44:22.796Z,-1.32
2019-01-20T09:45:22.763Z,-1.21
2019-01-20T09:46:22.761Z,-1.30
2019-01-20T09:47:22.840Z,-1.21
2019-01-20T09:48:22.673Z,-1.19
2019-01-20T09:49:22.642Z,-1.19
2019-01-20T09:50:22.612Z,-1.15
2019-01-20T09:51:22.581Z,-1.15
2019-01-20T09:52:22.551Z,-1.15
2019-01-20T09:53:22.518Z,-1.03
2019-01-20T09:54:22.488Z,-1.12
2019-01-20T09:55:22.457Z,-1.04
2019-01-20T09:56:22.435Z,-1.01
2019-01-20T09:57:22.395Z,-1.00
2019-01-20T09:58:22.369Z,-1.04
2019-01-20T09:59:22.336Z,-1.00
2019-01-20T10:00:22.305Z,-1.01
2019-01-20T10:01:22.281Z,-1.01
2019-01-20T10:02:22.243Z,-0.89
2019-01-20T10:03:22.214Z,-0.91
2019-01-20T10:04:22.189Z,-0.89
2019-01-20T10:05:22.201Z,-0.80
2019-01-20T10:06:22.121Z,-0.89
2019-01-20T10:07:22.091Z,-0.84
2019-01-20T10:08:22.070Z,-0.78
2019-01-20T10:09:22.156Z,-0.75
2019-01-20T10:10:22.018Z,-0.78
2019-01-20T10:11:22.034Z,-0.72
2019-01-20T10:12:21.951Z,-0.75
2019-01-20T10:13:21.909Z,-0.74
2019-01-20T10:14:21.879Z,-0.70
2019-01-20T10:15:21.850Z,-0.70
2019-01-20T10:16:21.822Z,-0.72
2019-01-20T10:17:21.819Z,-0.66
2019-01-20T10:18:21.758Z,-0.64
2019-01-20T10:19:21.752Z,-0.56
2019-01-20T10:20:21.698Z,-0.60
2019-01-20T10:21:21.670Z,-0.49
2019-01-20T10:22:21.635Z,-0.54
2019-01-20T10:23:21.612Z,-0.53
2019-01-20T10:24:21.605Z,-0.49
2019-01-20T10:25:21.545Z,-0.48
2019-01-20T10:26:21.522Z,-0.57
2019-01-20T10:27:21.485Z,-0.46
2019-01-20T10:28:21.454Z,-0.38
2019-01-20T10:29:21.428Z,-0.54
2019-01-20T10:30:21.395Z,-0.42
2019-01-20T10:31:21.367Z,-0.46
2019-01-20T10:32:21.334Z,-0.51
2019-01-20T10:33:21.310Z,-0.49
2019-01-20T10:34:21.278Z,-0.38
2019-01-20T10:35:21.250Z,-0.42
2019-01-20T10:36:21.217Z,-0.24
2019-01-20T10:37:21.243Z,-0.27
2019-01-20T10:38:21.152Z,-0.30
2019-01-20T10:39:21.231Z,-0.27
2019-01-20T10:40:21.095Z,-0.21
2019-01-20T10:41:22.039Z,-0.20
2019-01-20T10:42:21.057Z,-0.21
2019-01-20T10:43:21.004Z,-0.15
2019-01-20T10:44:20.975Z,-0.24
2019-01-20T10:45:20.943Z,-0.18
2019-01-20T10:46:20.914Z,-0.17
2019-01-20T10:47:20.883Z,-0.09
2019-01-20T10:48:20.858Z,-0.09
2019-01-20T10:49:20.847Z,-0.06
2019-01-20T10:50:20.794Z,-0.06
2019-01-20T10:51:20.763Z,-0.06
2019-01-20T10:52:20.736Z,-0.03
2019-01-20T10:53:20.705Z,0.00
2019-01-20T10:54:20.675Z,-0.02
2019-01-20T10:55:20.646Z,0.02
2019-01-20T10:56:20.646Z,0.02
2019-01-20T10:57:20.584Z,0.05
2019-01-20T10:58:20.555Z,0.06
2019-01-20T10:59:20.535Z,0.06
2019-01-20T11:00:20.521Z,0.16
2019-01-20T11:01:21.049Z,0.12
2019-01-20T11:02:20.436Z,0.09
2019-01-20T11:03:20.448Z,0.11
2019-01-20T11:04:20.382Z,0.23
2019-01-20T11:05:25.094Z,0.26
2019-01-20T11:06:20.326Z,0.19
2019-01-20T11:07:20.341Z,0.27
2019-01-20T11:08:20.258Z,0.23
2019-01-20T11:09:20.245Z,0.23
2019-01-20T11:10:20.201Z,0.24
2019-01-20T11:11:20.173Z,0.31
2019-01-20T11:12:20.176Z,0.37
2019-01-20T11:13:20.115Z,0.29
2019-01-20T11:14:20.083Z,0.37
2019-01-20T11:15:20.055Z,0.42
2019-01-20T11:16:20.022Z,0.37
2019-01-20T11:17:19.994Z,0.45
2019-01-20T11:18:19.965Z,0.45
2019-01-20T11:19:19.937Z,0.39
2019-01-20T11:20:19.917Z,0.42
2019-01-20T11:21:19.878Z,0.40
2019-01-20T11:22:19.853Z,0.40
2019-01-20T11:23:19.846Z,0.45
2019-01-20T11:24:19.787Z,0.48
2019-01-20T11:25:19.757Z,0.55
2019-01-20T11:26:19.759Z,0.45
2019-01-20T11:27:19.702Z,0.49
2019-01-20T11:28:19.670Z,0.55
2019-01-20T11:29:19.640Z,0.58
2019-01-20T11:30:19.623Z,0.63
2019-01-20T11:31:19.581Z,0.61
2019-01-20T11:32:19.558Z,0.66
2019-01-20T11:33:19.533Z,0.68
2019-01-20T11:34:19.493Z,0.78
2019-01-20T11:35:19.522Z,0.73
2019-01-20T11:36:19.437Z,0.68
2019-01-20T11:37:19.407Z,0.74
2019-01-20T11:38:19.375Z,0.76
2019-01-20T11:39:19.384Z,0.77
2019-01-20T11:40:19.317Z,0.77
2019-01-20T11:41:19.290Z,0.82
2019-01-20T11:42:19.259Z,0.81
2019-01-20T11:43:19.238Z,0.78
2019-01-20T11:44:19.211Z,0.94
2019-01-20T11:45:19.171Z,0.85
2019-01-20T11:46:19.142Z,0.89
2019-01-20T11:47:19.114Z,0.99
2019-01-20T11:48:19.086Z,0.99
2019-01-20T11:49:19.055Z,0.99
2019-01-20T11:50:19.026Z,1.02
2019-01-20T11:51:18.998Z,1.07
2019-01-20T11:52:18.970Z,1.07
2019-01-20T11:53:18.939Z,1.06
2019-01-20T11:54:18.933Z,1.02
2019-01-20T11:55:18.882Z,1.04
2019-01-20T11:56:18.852Z,1.09
2019-01-20T11:57:18.830Z,1.09
2019-01-20T11:58:18.795Z,1.10
2019-01-20T11:59:18.772Z,1.12
2019-01-20T12:00:18.738Z,1.09
2019-01-20T12:01:18.709Z,1.16
2019-01-20T12:02:22.364Z,1.14
2019-01-20T12:03:18.654Z,1.20
2019-01-20T12:04:18.620Z,1.27
2019-01-20T12:05:18.593Z,1.28
2019-01-20T12:06:18.563Z,1.27
2019-01-20T12:07:18.537Z,1.30
2019-01-20T12:08:18.506Z,1.28
2019-01-20T12:09:18.481Z,1.30
2019-01-20T12:10:18.450Z,1.36
2019-01-20T12:11:18.418Z,1.28
2019-01-20T12:12:18.399Z,1.39
2019-01-20T12:13:18.359Z,1.39
2019-01-20T12:14:24.011Z,1.34
2019-01-20T12:15:18.302Z,1.39
2019-01-20T12:16:18.279Z,1.42
2019-01-20T12:17:18.245Z,1.36
2019-01-20T12:18:18.217Z,1.45
2019-01-20T12:19:18.187Z,1.45
2019-01-20T12:20:18.160Z,1.40
2019-01-20T12:21:18.129Z,1.45
2019-01-20T12:22:18.101Z,1.42
2019-01-20T12:23:18.079Z,1.49
2019-01-20T12:24:19.478Z,1.50
2019-01-20T12:25:18.016Z,1.61
2019-01-20T12:26:18.013Z,1.63
2019-01-20T12:27:17.958Z,1.61
2019-01-20T12:28:17.929Z,1.61
2019-01-20T12:29:17.902Z,1.57
2019-01-20T12:30:17.871Z,1.63
2019-01-20T12:31:17.844Z,1.63
2019-01-20T12:32:17.822Z,1.60
2019-01-20T12:33:17.785Z,1.61
2019-01-20T12:34:17.759Z,1.63
2019-01-20T12:35:17.727Z,1.70
2019-01-20T12:36:17.737Z,1.67
2019-01-20T12:37:17.669Z,1.78
2019-01-20T12:38:17.642Z,1.70
2019-01-20T12:39:17.613Z,1.78
2019-01-20T12:40:17.587Z,1.74
2019-01-20T12:41:17.557Z,1.67
2019-01-20T12:42:17.538Z,1.64
2019-01-20T12:43:17.499Z,1.79
2019-01-20T12:44:17.470Z,1.76
2019-01-20T12:45:17.441Z,1.78
2019-01-20T12:46:17.425Z,1.82
2019-01-20T12:47:17.387Z,1.75
2019-01-20T12:48:17.357Z,1.95
2019-01-20T12:49:17.354Z,1.78
2019-01-20T12:50:17.298Z,1.85
2019-01-20T12:51:17.270Z,1.85
2019-01-20T12:52:17.247Z,1.82
2019-01-20T12:53:17.217Z,1.89
2019-01-20T12:54:17.189Z,1.86
2019-01-20T12:55:17.160Z,1.92
2019-01-20T12:56:17.129Z,1.86
2019-01-20T12:57:17.156Z,1.89
2019-01-20T12:58:17.100Z,1.89
2019-01-20T12:59:17.047Z,1.86
2019-01-20T13:00:17.015Z,1.97
2019-01-20T13:01:16.986Z,2.01
2019-01-20T13:02:16.959Z,2.01
2019-01-20T13:03:16.932Z,2.00
2019-01-20T13:04:16.901Z,1.98
2019-01-20T13:05:16.873Z,2.07
2019-01-20T13:06:16.859Z,2.04
2019-01-20T13:07:16.815Z,2.08
2019-01-20T13:08:16.799Z,2.05
2019-01-20T13:09:16.762Z,2.04
2019-01-20T13:10:16.730Z,2.08
2019-01-20T13:11:16.703Z,2.08
2019-01-20T13:12:16.672Z,2.03
2019-01-20T13:13:16.643Z,2.14
2019-01-20T13:14:16.659Z,2.19
2019-01-20T13:15:16.588Z,2.21
2019-01-20T13:16:16.560Z,2.22
2019-01-20T13:17:16.532Z,2.16
2019-01-20T13:18:16.505Z,2.22
2019-01-20T13:19:16.480Z,2.16
2019-01-20T13:20:16.452Z,2.23
2019-01-20T13:21:16.461Z,2.25
2019-01-20T13:22:16.403Z,2.18
2019-01-20T13:23:16.362Z,2.32
2019-01-20T13:24:16.335Z,2.32
2019-01-20T13:25:16.311Z,2.37
2019-01-20T13:26:16.277Z,2.30
2019-01-20T13:27:16.373Z,2.36
2019-01-20T13:28:16.226Z,2.33
2019-01-20T13:29:16.199Z,2.41
2019-01-20T13:30:16.169Z,2.51
2019-01-20T13:31:16.136Z,2.54
2019-01-20T13:32:16.112Z,2.55
2019-01-20T13:33:16.084Z,2.54
2019-01-20T13:34:16.052Z,2.52
2019-01-20T13:35:16.028Z,2.54
2019-01-20T13:36:15.999Z,2.54
2019-01-20T13:37:15.968Z,2.51
2019-01-20T13:38:15.942Z,2.62
2019-01-20T13:39:15.919Z,2.59
2019-01-20T13:40:15.887Z,2.72
2019-01-20T13:41:15.859Z,2.69
2019-01-20T13:42:15.828Z,2.79
2019-01-20T13:43:15.801Z,2.76
2019-01-20T13:44:15.781Z,2.65
2019-01-20T13:45:15.746Z,2.76
2019-01-20T13:46:15.717Z,2.80
2019-01-20T13:47:15.689Z,2.76
2019-01-20T13:48:15.663Z,2.80
2019-01-20T13:49:15.634Z,2.88
2019-01-20T13:50:15.611Z,2.90
2019-01-20T13:51:15.582Z,2.93
2019-01-20T13:52:15.553Z,3.00
2019-01-20T13:53:15.524Z,3.00
2019-01-20T13:54:15.499Z,2.97
2019-01-20T13:55:15.493Z,3.06
2019-01-20T13:56:15.442Z,3.11
2019-01-20T13:57:15.414Z,3.09
2019-01-20T13:58:15.384Z,3.21
2019-01-20T13:59:15.391Z,3.21
2019-01-20T14:00:15.329Z,3.24
2019-01-20T14:01:15.327Z,3.37
2019-01-20T14:02:15.281Z,3.43
2019-01-20T14:03:15.248Z,3.63
2019-01-20T14:04:15.223Z,3.86
2019-01-20T14:05:15.198Z,4.25